createdAt,value
2019-06-26T00:02:51.452Z,8.17
2019-06-26T00:05:55.175Z,7.70
2019-06-26T00:08:59.194Z,7.30
2019-06-26T00:12:03.165Z,7.07
2019-06-26T00:15:07.720Z,8.40
2019-06-26T00:18:11.458Z,8.07
2019-06-26T00:21:15.169Z,8.10
2019-06-26T00:24:18.927Z,7.63
2019-06-26T00:27:22.628Z,7.87
2019-06-26T00:30:26.687Z,7.80
2019-06-26T00:33:30.378Z,8.30
2019-06-26T00:36:34.084Z,8.43
2019-06-26T00:39:37.914Z,8.43
2019-06-26T00:42:41.637Z,7.57
2019-06-26T00:45:45.414Z,8.37
2019-06-26T00:48:49.145Z,8.17
2019-06-26T00:51:53.036Z,7.80
2019-06-26T00:54:57.055Z,8.80
2019-06-26T00:58:00.747Z,8.20
2019-06-26T01:01:04.456Z,8.27
2019-06-26T01:04:12.955Z,8.60
2019-06-26T01:07:16.754Z,8.27
2019-06-26T01:10:20.987Z,8.80
2019-06-26T01:13:25.123Z,8.73
2019-06-26T01:16:29.156Z,9.13
2019-06-26T01:19:33.197Z,8.47
2019-06-26T01:22:36.990Z,9.07
2019-06-26T01:25:40.770Z,8.43
2019-06-26T01:28:44.464Z,8.77
2019-06-26T01:31:48.181Z,8.47
2019-06-26T01:34:51.877Z,8.60
2019-06-26T01:37:55.570Z,8.27
2019-06-26T01:40:59.284Z,8.83
2019-06-26T01:44:14.239Z,8.77
2019-06-26T01:47:08.656Z,9.00
2019-06-26T01:50:12.416Z,8.40
2019-06-26T01:53:16.529Z,9.00
2019-06-26T01:56:20.381Z,8.20
2019-06-26T01:59:24.084Z,8.57
2019-06-26T02:02:28.160Z,8.60
2019-06-26T02:05:31.952Z,8.83
2019-06-26T02:08:35.979Z,8.83
2019-06-26T02:11:40.011Z,8.40
2019-06-26T02:14:43.940Z,8.30
2019-06-26T02:17:47.644Z,8.30
2019-06-26T02:20:51.354Z,8.53
2019-06-26T02:23:55.055Z,9.17
2019-06-26T02:26:59.180Z,9.23
2019-06-26T02:30:02.962Z,9.20
2019-06-26T02:33:06.756Z,8.83
2019-06-26T02:36:10.888Z,9.13
2019-06-26T02:39:14.617Z,8.97
2019-06-26T02:42:18.846Z,9.00
2019-06-26T02:45:22.605Z,8.30
2019-06-26T02:48:26.678Z,9.33
2019-06-26T02:51:30.749Z,9.17
2019-06-26T02:54:34.571Z,8.97
2019-06-26T02:57:38.281Z,9.13
2019-06-26T03:00:42.129Z,9.33
2019-06-26T03:03:46.189Z,9.30
2019-06-26T03:06:49.893Z,8.23
2019-06-26T03:09:53.682Z,9.80
2019-06-26T03:12:57.689Z,8.83
2019-06-26T03:16:01.411Z,8.93
2019-06-26T03:19:05.197Z,9.17
2019-06-26T03:22:09.204Z,8.93
2019-06-26T03:25:12.983Z,9.30
2019-06-26T03:28:16.751Z,8.90
2019-06-26T03:31:20.455Z,9.43
2019-06-26T03:34:24.626Z,9.17
2019-06-26T03:37:28.308Z,9.17
2019-06-26T03:40:32.019Z,8.77
2019-06-26T03:43:35.904Z,8.87
2019-06-26T03:46:39.659Z,9.00
2019-06-26T03:49:43.629Z,9.30
2019-06-26T03:52:47.426Z,9.13
2019-06-26T03:55:51.146Z,9.40
2019-06-26T03:58:55.244Z,9.30
2019-06-26T04:01:59.443Z,9.10
2019-06-26T04:05:03.163Z,9.07
2019-06-26T04:08:07.699Z,9.17
2019-06-26T04:11:11.460Z,8.73
2019-06-26T04:14:15.545Z,10.10
2019-06-26T04:17:19.261Z,9.33
2019-06-26T04:20:23.263Z,9.60
2019-06-26T04:23:26.968Z,10.00
2019-06-26T04:26:30.748Z,10.30
2019-06-26T04:29:34.559Z,10.80
2019-06-26T04:32:38.353Z,10.03
2019-06-26T04:35:42.043Z,9.47
2019-06-26T04:38:45.776Z,9.07
2019-06-26T04:41:49.799Z,9.93
2019-06-26T04:44:53.499Z,9.80
2019-06-26T04:47:57.544Z,10.33
2019-06-26T04:51:01.264Z,10.03
2019-06-26T04:54:05.095Z,10.30
2019-06-26T04:57:08.788Z,10.80
2019-06-26T05:00:13.883Z,10.93
2019-06-26T05:03:17.604Z,11.03
2019-06-26T05:06:21.340Z,10.90
2019-06-26T05:09:25.266Z,10.70
2019-06-26T05:12:29.019Z,10.00
2019-06-26T05:15:32.714Z,10.87
2019-06-26T05:18:36.721Z,11.17
2019-06-26T05:21:40.437Z,11.03
2019-06-26T05:24:46.412Z,10.57
2019-06-26T05:27:49.975Z,11.00
2019-06-26T05:30:54.039Z,10.87
2019-06-26T05:33:57.753Z,11.10
2019-06-26T05:37:01.744Z,11.50
2019-06-26T05:40:07.324Z,11.23
2019-06-26T05:43:11.105Z,10.40
2019-06-26T05:46:30.162Z,10.20
2019-06-26T05:49:20.357Z,10.50
2019-06-26T05:52:24.215Z,10.60
2019-06-26T05:55:28.369Z,12.07
2019-06-26T05:58:32.035Z,11.30
2019-06-26T06:01:35.793Z,11.63
2019-06-26T06:04:39.715Z,10.93
2019-06-26T06:07:43.409Z,10.90
2019-06-26T06:10:47.239Z,11.27
2019-06-26T06:13:51.038Z,11.57
2019-06-26T06:16:54.747Z,10.40
2019-06-26T06:19:58.470Z,11.57
2019-06-26T06:23:02.268Z,10.63
2019-06-26T06:26:06.032Z,11.43
2019-06-26T06:29:09.836Z,10.47
2019-06-26T06:32:13.887Z,11.30
2019-06-26T06:35:17.823Z,12.60
2019-06-26T06:38:21.506Z,11.77
2019-06-26T06:41:25.211Z,11.37
2019-06-26T06:44:28.929Z,10.47
2019-06-26T06:47:33.133Z,10.97
2019-06-26T06:50:37.333Z,12.30
2019-06-26T06:53:41.085Z,10.50
2019-06-26T06:56:45.420Z,10.73
2019-06-26T06:59:49.121Z,10.23
2019-06-26T07:02:53.431Z,9.67
2019-06-26T07:05:57.769Z,10.70
2019-06-26T07:09:01.448Z,8.80
2019-06-26T07:12:05.332Z,7.73
2019-06-26T07:15:10.100Z,7.27
2019-06-26T07:18:13.799Z,7.70
2019-06-26T07:21:17.535Z,7.23
2019-06-26T07:24:21.647Z,6.90
2019-06-26T07:27:25.342Z,7.13
2019-06-26T07:30:29.080Z,6.90
2019-06-26T07:33:32.998Z,7.47
2019-06-26T07:36:37.051Z,6.83
2019-06-26T07:39:42.804Z,6.72
2019-06-26T07:42:46.222Z,7.05
2019-06-26T07:45:50.241Z,7.07
2019-06-26T07:48:57.370Z,9.03
2019-06-26T07:51:59.395Z,6.47
2019-06-26T07:55:03.165Z,7.15
2019-06-26T07:58:06.954Z,7.00
2019-06-26T08:01:10.970Z,6.72
2019-06-26T08:04:14.955Z,6.72
2019-06-26T08:07:19.067Z,6.22
2019-06-26T08:10:22.750Z,6.00
2019-06-26T08:13:27.082Z,6.08
2019-06-26T08:16:34.327Z,6.08
2019-06-26T08:19:36.671Z,5.53
2019-06-26T08:22:40.665Z,5.80
2019-06-26T08:25:44.355Z,6.03
2019-06-26T08:28:48.051Z,5.42
2019-06-26T08:31:52.088Z,5.62
2019-06-26T08:34:55.858Z,5.62
2019-06-26T08:38:10.999Z,5.65
2019-06-26T08:41:05.542Z,5.85
2019-06-26T08:44:09.246Z,6.10
2019-06-26T08:47:12.942Z,5.30
2019-06-26T08:50:18.116Z,5.35
2019-06-26T08:53:22.418Z,5.17
2019-06-26T08:56:26.407Z,12.53
2019-06-26T08:59:30.156Z,5.60
2019-06-26T09:02:33.839Z,4.80
2019-06-26T09:05:47.871Z,5.58
2019-06-26T09:08:43.312Z,5.37
2019-06-26T09:11:47.314Z,5.30
2019-06-26T09:14:51.009Z,5.12
2019-06-26T09:17:54.718Z,5.05
2019-06-26T09:20:58.672Z,5.22
2019-06-26T09:24:02.377Z,4.78
2019-06-26T09:27:06.859Z,4.75
2019-06-26T09:30:10.909Z,4.95
2019-06-26T09:33:14.614Z,4.60
2019-06-26T09:36:18.943Z,5.15
2019-06-26T09:39:22.865Z,4.75
2019-06-26T09:42:26.547Z,4.80
2019-06-26T09:45:30.243Z,4.30
2019-06-26T09:48:51.164Z,4.90
2019-06-26T09:51:40.347Z,4.90
2019-06-26T09:54:44.313Z,4.70
2019-06-26T09:57:48.077Z,4.95
2019-06-26T10:00:52.277Z,4.90
2019-06-26T10:03:55.991Z,4.40
2019-06-26T10:07:00.027Z,4.42
2019-06-26T10:10:04.323Z,4.67
2019-06-26T10:13:08.016Z,4.70
2019-06-26T10:16:11.721Z,4.40
2019-06-26T10:19:15.737Z,4.17
2019-06-26T10:22:19.996Z,4.83
2019-06-26T10:25:24.015Z,5.12
2019-06-26T10:28:27.711Z,5.08
2019-06-26T10:31:31.699Z,5.30
2019-06-26T10:34:35.721Z,5.00
2019-06-26T10:37:39.829Z,4.35
2019-06-26T10:40:43.628Z,3.98
2019-06-26T10:43:47.638Z,3.35
2019-06-26T10:46:51.864Z,4.00
2019-06-26T10:49:56.192Z,3.77
2019-06-26T10:53:00.292Z,3.40
2019-06-26T10:56:04.904Z,3.58
2019-06-26T10:59:08.597Z,3.83
2019-06-26T11:02:16.605Z,4.05
2019-06-26T11:05:18.573Z,3.77
2019-06-26T11:08:22.265Z,3.30
2019-06-26T11:11:26.198Z,3.30
2019-06-26T11:14:30.130Z,3.20
2019-06-26T11:17:33.858Z,3.90
2019-06-26T11:20:37.550Z,3.25
2019-06-26T11:23:41.615Z,2.90
2019-06-26T11:26:45.596Z,3.50
2019-06-26T11:29:49.613Z,3.10
2019-06-26T11:32:53.387Z,3.25
2019-06-26T11:35:57.372Z,3.08
2019-06-26T11:39:01.082Z,2.85
2019-06-26T11:42:05.051Z,3.37
2019-06-26T11:45:09.741Z,3.10
2019-06-26T11:48:13.556Z,2.98
2019-06-26T11:51:17.472Z,3.40
2019-06-26T11:54:21.343Z,3.20
2019-06-26T11:57:25.533Z,3.75
2019-06-26T12:00:29.245Z,3.25
2019-06-26T12:03:33.246Z,3.40
2019-06-26T12:06:37.231Z,3.17
2019-06-26T12:09:41.325Z,3.17
2019-06-26T12:12:45.941Z,3.15
2019-06-26T12:15:49.690Z,3.35
2019-06-26T12:18:54.034Z,2.87
2019-06-26T12:21:57.862Z,3.00
2019-06-26T12:25:01.569Z,3.08
2019-06-26T12:28:05.636Z,2.95
2019-06-26T12:31:09.576Z,3.02
2019-06-26T12:34:13.658Z,3.02
2019-06-26T12:37:17.312Z,3.15
2019-06-26T12:40:21.370Z,2.70
2019-06-26T12:43:25.088Z,3.00
2019-06-26T12:46:28.776Z,3.30
2019-06-26T12:49:32.836Z,2.80
2019-06-26T12:52:36.609Z,2.90
2019-06-26T12:55:40.300Z,2.77
2019-06-26T12:58:44.265Z,2.65
2019-06-26T13:01:47.997Z,3.15
2019-06-26T13:04:51.658Z,3.08
2019-06-26T13:07:55.691Z,3.20
2019-06-26T13:10:59.459Z,2.90
2019-06-26T13:14:03.821Z,2.65
2019-06-26T13:17:07.534Z,2.62
2019-06-26T13:20:11.818Z,2.92
2019-06-26T13:23:15.486Z,2.98
2019-06-26T13:26:19.521Z,3.33
2019-06-26T13:29:23.891Z,3.02
2019-06-26T13:32:27.583Z,3.10
2019-06-26T13:35:31.453Z,3.27
2019-06-26T13:38:35.502Z,3.42
2019-06-26T13:41:39.244Z,3.40
2019-06-26T13:44:43.219Z,3.12
2019-06-26T13:47:47.255Z,2.80
2019-06-26T13:50:50.962Z,2.87
2019-06-26T13:53:55.282Z,3.33
2019-06-26T13:56:59.434Z,3.92
2019-06-26T14:00:03.324Z,3.62
2019-06-26T14:03:07.379Z,3.95
2019-06-26T14:06:11.082Z,4.33
2019-06-26T14:09:14.783Z,4.25
2019-06-26T14:12:19.427Z,3.98
2019-06-26T14:15:23.688Z,4.05
2019-06-26T14:18:30.378Z,3.42
2019-06-26T14:21:33.166Z,2.92
2019-06-26T14:24:36.834Z,3.30
2019-06-26T14:27:40.773Z,3.87
2019-06-26T14:30:45.191Z,3.83
2019-06-26T14:33:48.906Z,3.55
2019-06-26T14:36:52.605Z,3.75
2019-06-26T14:39:56.556Z,3.30
2019-06-26T14:43:00.651Z,3.17
2019-06-26T14:46:04.409Z,3.40
2019-06-26T14:49:08.454Z,3.17
2019-06-26T14:52:12.140Z,2.90
2019-06-26T14:55:15.826Z,3.27
2019-06-26T14:58:19.587Z,3.75
2019-06-26T15:01:23.310Z,3.58
2019-06-26T15:04:26.966Z,3.47
2019-06-26T15:07:30.637Z,3.23
2019-06-26T15:10:34.316Z,3.33
2019-06-26T15:13:38.252Z,3.17
2019-06-26T15:16:42.044Z,3.70
2019-06-26T15:19:46.806Z,3.37
2019-06-26T15:22:50.536Z,3.22
2019-06-26T15:25:54.216Z,3.43
2019-06-26T15:28:57.933Z,3.27
2019-06-26T15:32:02.636Z,3.03
2019-06-26T15:35:06.853Z,3.93
2019-06-26T15:38:10.690Z,3.17
2019-06-26T15:41:14.656Z,3.30
2019-06-26T15:44:18.602Z,2.70
2019-06-26T15:47:22.933Z,3.60
2019-06-26T15:50:26.634Z,3.30
2019-06-26T15:53:30.655Z,3.10
2019-06-26T15:56:34.325Z,3.30
2019-06-26T15:59:38.018Z,3.60
2019-06-26T16:02:42.129Z,3.27
2019-06-26T16:05:45.924Z,3.63
2019-06-26T16:08:49.895Z,3.10
2019-06-26T16:11:53.584Z,3.67
2019-06-26T16:14:57.634Z,3.43
2019-06-26T16:18:09.433Z,3.90
2019-06-26T16:21:13.378Z,3.57
2019-06-26T16:24:17.113Z,3.30
2019-06-26T16:27:21.621Z,3.53
2019-06-26T16:30:25.763Z,3.87
2019-06-26T16:33:29.455Z,3.70
2019-06-26T16:36:33.299Z,3.73
2019-06-26T16:39:37.319Z,3.60
2019-06-26T16:42:41.271Z,3.60
2019-06-26T16:45:45.055Z,3.77
2019-06-26T16:48:49.149Z,3.80
2019-06-26T16:51:52.838Z,3.47
2019-06-26T16:54:56.902Z,3.70
2019-06-26T16:58:00.581Z,4.07
2019-06-26T17:01:04.267Z,4.00
2019-06-26T17:04:08.020Z,4.20
2019-06-26T17:07:11.749Z,4.90
2019-06-26T17:10:15.888Z,4.27
2019-06-26T17:13:19.801Z,4.23
2019-06-26T17:16:23.830Z,3.90
2019-06-26T17:19:27.598Z,3.70
2019-06-26T17:22:31.580Z,4.50
2019-06-26T17:25:35.520Z,4.10
2019-06-26T17:28:39.319Z,4.50
2019-06-26T17:31:43.019Z,4.53
2019-06-26T17:34:47.073Z,4.30
2019-06-26T17:37:51.166Z,4.73
2019-06-26T17:40:55.141Z,4.60
2019-06-26T17:43:58.813Z,4.07
2019-06-26T17:47:06.835Z,4.73
2019-06-26T17:50:12.704Z,4.93
2019-06-26T17:53:21.522Z,4.70
2019-06-26T17:56:21.894Z,5.90
2019-06-26T17:59:25.630Z,6.40
2019-06-26T18:02:29.758Z,5.00
2019-06-26T18:05:34.156Z,5.90
2019-06-26T18:08:37.942Z,4.10
2019-06-26T18:11:41.758Z,5.40
2019-06-26T18:14:45.449Z,5.30
2019-06-26T18:17:49.153Z,4.87
2019-06-26T18:20:52.869Z,3.70
2019-06-26T18:23:56.550Z,3.60
2019-06-26T18:27:00.814Z,3.70
2019-06-26T18:30:05.075Z,3.43
2019-06-26T18:33:08.761Z,2.97
2019-06-26T18:36:12.751Z,2.90
2019-06-26T18:39:16.876Z,2.90
2019-06-26T18:42:20.575Z,2.50
2019-06-26T18:45:24.717Z,2.87
2019-06-26T18:48:28.476Z,2.67
2019-06-26T18:51:32.174Z,2.60
2019-06-26T18:54:35.866Z,2.47
2019-06-26T18:57:39.612Z,2.30
2019-06-26T19:00:43.740Z,2.33
2019-06-26T19:03:47.438Z,2.60
2019-06-26T19:06:51.203Z,1.60
2019-06-26T19:09:54.984Z,2.00
2019-06-26T19:12:58.947Z,2.13
2019-06-26T19:16:04.650Z,2.03
2019-06-26T19:19:08.158Z,2.03
2019-06-26T19:22:13.554Z,2.10
2019-06-26T19:25:17.412Z,1.87
2019-06-26T19:28:23.182Z,2.67
2019-06-26T19:31:26.822Z,2.20
2019-06-26T19:34:31.063Z,2.23
2019-06-26T19:37:34.814Z,2.17
2019-06-26T19:40:38.720Z,2.30
2019-06-26T19:43:42.654Z,1.80
2019-06-26T19:46:46.635Z,2.63
2019-06-26T19:49:50.444Z,2.50
2019-06-26T19:52:54.213Z,2.13
2019-06-26T19:55:57.999Z,3.20
2019-06-26T19:59:01.991Z,2.67
2019-06-26T20:02:05.957Z,2.93
2019-06-26T20:05:10.306Z,3.37
2019-06-26T20:08:14.087Z,3.33
2019-06-26T20:11:17.775Z,3.03
2019-06-26T20:14:21.814Z,2.67
2019-06-26T20:17:25.747Z,2.83
2019-06-26T20:20:29.503Z,3.87
2019-06-26T20:23:33.529Z,2.43
2019-06-26T20:26:37.238Z,3.00
2019-06-26T20:29:41.081Z,2.97
2019-06-26T20:32:45.103Z,3.03
2019-06-26T20:35:48.787Z,3.37
2019-06-26T20:38:52.479Z,2.93
2019-06-26T20:41:56.325Z,2.80
2019-06-26T20:45:00.192Z,3.63
2019-06-26T20:48:04.060Z,3.23
2019-06-26T20:51:08.039Z,2.97
2019-06-26T20:54:12.077Z,2.87
2019-06-26T20:57:15.740Z,2.70
2019-06-26T21:00:22.481Z,2.90
2019-06-26T21:03:25.199Z,2.90
2019-06-26T21:06:28.999Z,2.80
2019-06-26T21:09:32.980Z,2.63
2019-06-26T21:12:36.692Z,2.63
2019-06-26T21:15:40.452Z,3.10
2019-06-26T21:18:44.143Z,3.17
2019-06-26T21:21:47.847Z,2.50
2019-06-26T21:24:51.717Z,2.70
2019-06-26T21:27:56.199Z,2.47
2019-06-26T21:31:00.419Z,2.87
2019-06-26T21:34:04.104Z,2.40
2019-06-26T21:37:07.879Z,3.13
2019-06-26T21:40:11.654Z,2.93
2019-06-26T21:43:15.958Z,2.70
2019-06-26T21:46:19.599Z,2.43
2019-06-26T21:49:23.637Z,2.50
2019-06-26T21:52:27.397Z,2.30
2019-06-26T21:55:34.651Z,2.77
2019-06-26T21:58:36.826Z,2.80
2019-06-26T22:01:40.872Z,2.57
2019-06-26T22:04:44.813Z,2.90
2019-06-26T22:07:48.627Z,2.37
2019-06-26T22:10:52.598Z,2.70
2019-06-26T22:13:56.302Z,2.97
2019-06-26T22:17:00.100Z,3.17
2019-06-26T22:20:07.666Z,3.20
2019-06-26T22:23:09.761Z,3.20
2019-06-26T22:26:14.401Z,3.20
2019-06-26T22:29:18.388Z,3.50
2019-06-26T22:32:22.338Z,2.93
2019-06-26T22:35:26.007Z,2.47
2019-06-26T22:38:29.678Z,2.23
2019-06-26T22:41:33.433Z,2.47
2019-06-26T22:44:37.142Z,2.43
2019-06-26T22:47:40.840Z,3.20
2019-06-26T22:50:44.974Z,3.20
2019-06-26T22:53:48.696Z,2.80
2019-06-26T22:56:52.372Z,2.70
2019-06-26T22:59:56.430Z,2.87
2019-06-26T23:03:00.146Z,2.40
2019-06-26T23:06:03.935Z,2.30
2019-06-26T23:09:08.055Z,2.80
2019-06-26T23:12:11.772Z,3.43
2019-06-26T23:15:15.994Z,3.00
2019-06-26T23:18:19.721Z,2.87
2019-06-26T23:21:23.732Z,3.20
2019-06-26T23:24:28.009Z,2.93
2019-06-26T23:27:31.807Z,2.50
2019-06-26T23:30:35.832Z,3.27
2019-06-26T23:33:39.611Z,2.73
2019-06-26T23:36:43.322Z,3.47
2019-06-26T23:39:48.343Z,2.70
2019-06-26T23:42:52.091Z,2.93
2019-06-26T23:45:56.426Z,2.87
2019-06-26T23:49:00.197Z,2.60
2019-06-26T23:52:03.902Z,2.37
2019-06-26T23:55:08.267Z,3.17
2019-06-26T23:58:12.306Z,3.00
